Time;durP1;ratioP1;P1;durP2;ratioP2;P2;SDS_P1;SDS_P2;PMS_P1;PMS_P2;Temp;Humidity;BMP_temperature;BMP_pressure;BME280_temperature;BME280_humidity;BME280_pressure;Samples;Min_cycle;Max_cycle;Signal;HPM_P1;HPM_P2
2022/06/10 00:00:56;;;;;;;3.83;1.63;;;22.10;78.20;;;;;;6215280;23;20023;-79
2022/06/10 00:03:25;;;;;;;2.25;1.83;;;22.10;78.30;;;;;;6215198;23;20418;-78
2022/06/10 00:05:55;;;;;;;2.33;1.48;;;22.10;78.10;;;;;;6214926;23;20031;-78
2022/06/10 00:08:23;;;;;;;2.75;1.50;;;22.10;78.90;;;;;;6215162;23;20009;-79
2022/06/10 00:10:50;;;;;;;1.95;1.45;;;22.10;78.40;;;;;;6214926;23;20027;-80
2022/06/10 00:13:19;;;;;;;2.35;1.70;;;22.10;78.40;;;;;;6215803;23;20001;-79
2022/06/10 00:15:45;;;;;;;2.10;1.45;;;22.00;78.30;;;;;;6213713;23;20004;-79
2022/06/10 00:18:11;;;;;;;2.28;1.55;;;22.00;78.40;;;;;;6215280;23;20012;-79
2022/06/10 00:20:37;;;;;;;2.33;1.48;;;22.10;79.20;;;;;;6215397;23;20007;-79
2022/06/10 00:23:03;;;;;;;1.70;1.30;;;22.00;78.90;;;;;;6215105;23;20047;-79
2022/06/10 00:25:29;;;;;;;2.80;1.38;;;22.00;78.60;;;;;;6213742;23;20419;-80
2022/06/10 00:27:54;;;;;;;2.00;1.50;;;22.00;78.60;;;;;;6214810;23;20371;-79
2022/06/10 00:30:25;;;;;;;2.28;1.50;;;22.00;78.80;;;;;;6214646;23;20012;-79
2022/06/10 00:32:51;;;;;;;2.85;1.63;;;22.00;78.90;;;;;;6215280;23;20012;-80
2022/06/10 00:35:17;;;;;;;2.03;1.50;;;21.90;79.10;;;;;;6214884;23;20416;-79
2022/06/10 00:37:43;;;;;;;3.03;1.73;;;21.90;79.20;;;;;;6215393;23;20475;-79
2022/06/10 00:40:35;;;;;;;3.22;1.60;;;21.80;79.20;;;;;;6215952;23;20028;-80
2022/06/10 00:43:00;;;;;;;2.42;1.67;;;21.90;79.40;;;;;;6216575;23;20039;-79
2022/06/10 00:45:54;;;;;;;2.75;1.88;;;21.80;79.30;;;;;;6216308;23;19997;-79
2022/06/10 00:48:41;;;;;;;2.30;1.63;;;21.80;79.30;;;;;;6189777;23;20032;-80
2022/06/10 00:51:13;;;;;;;2.15;1.52;;;21.80;79.40;;;;;;6217321;23;20027;-81
2022/06/10 00:53:40;;;;;;;3.95;2.15;;;21.80;79.40;;;;;;6217170;23;20465;-79
2022/06/10 00:56:11;;;;;;;2.30;1.63;;;21.80;79.60;;;;;;6191382;23;20008;-80
2022/06/10 00:58:54;;;;;;;2.47;1.95;;;21.80;79.80;;;;;;6216063;23;20008;-81
2022/06/10 01:01:21;;;;;;;3.33;1.70;;;21.80;79.70;;;;;;6217100;23;20001;-81
2022/06/10 01:03:48;;;;;;;2.42;1.58;;;21.80;79.70;;;;;;6216901;23;20001;-78
2022/06/10 01:06:14;;;;;;;2.35;1.83;;;21.80;79.90;;;;;;6224231;23;20051;-79
2022/06/10 01:08:42;;;;;;;4.10;1.80;;;21.80;79.90;;;;;;6216458;23;20009;-79
2022/06/10 01:11:37;;;;;;;2.17;1.98;;;21.80;79.90;;;;;;6215099;23;20013;-79
2022/06/10 01:14:18;;;;;;;4.32;1.88;;;21.80;79.80;;;;;;6220356;23;20005;-78
2022/06/10 01:17:09;;;;;;;3.92;1.90;;;21.70;79.60;;;;;;6222496;23;20001;-79
2022/06/10 01:19:41;;;;;;;3.85;1.88;;;21.70;79.60;;;;;;6216684;23;20000;-78
2022/06/10 01:22:18;;;;;;;4.18;1.95;;;21.70;79.50;;;;;;6214410;23;19997;-78
2022/06/10 01:25:11;;;;;;;2.35;1.75;;;21.70;79.60;;;;;;6214574;23;20304;-78
2022/06/10 01:28:00;;;;;;;2.67;1.90;;;21.70;79.30;;;;;;6215259;23;20000;-79
2022/06/10 01:30:41;;;;;;;3.00;2.05;;;21.70;79.30;;;;;;6215114;23;20424;-78
2022/06/10 01:33:23;;;;;;;2.75;1.75;;;21.70;79.40;;;;;;6213939;23;20070;-78
2022/06/10 01:35:57;;;;;;;3.08;2.03;;;21.70;79.80;;;;;;6214844;23;20005;-78
2022/06/10 01:38:32;;;;;;;2.00;1.70;;;21.70;80.00;;;;;;6214364;23;20036;-78
2022/06/10 01:41:19;;;;;;;2.53;1.77;;;21.70;80.10;;;;;;6214924;23;19997;-79
2022/06/10 01:44:13;;;;;;;2.65;2.00;;;21.60;80.00;;;;;;6213326;23;20036;-78
2022/06/10 01:46:51;;;;;;;2.10;1.73;;;21.60;80.10;;;;;;6215381;23;20075;-78
2022/06/10 01:49:26;;;;;;;2.67;1.75;;;21.60;80.10;;;;;;6216445;23;20001;-78
2022/06/10 01:51:58;;;;;;;2.80;1.60;;;21.60;80.20;;;;;;6216469;23;20108;-78
2022/06/10 01:54:36;;;;;;;3.08;1.70;;;21.50;80.00;;;;;;6216064;23;20001;-78
2022/06/10 01:57:09;;;;;;;3.50;1.45;;;21.50;80.00;;;;;;6216026;23;20007;-78
2022/06/10 01:59:52;;;;;;;2.90;2.00;;;21.50;80.30;;;;;;6216035;23;20076;-78
2022/06/10 02:02:25;;;;;;;4.53;1.98;;;21.50;80.40;;;;;;6216529;23;20407;-77
2022/06/10 02:04:59;;;;;;;2.17;1.73;;;21.50;80.30;;;;;;6215050;23;20001;-78
2022/06/10 02:07:35;;;;;;;2.30;1.77;;;21.40;80.20;;;;;;6216193;23;20071;-78
2022/06/10 02:10:29;;;;;;;2.50;1.77;;;21.40;80.30;;;;;;6215567;23;20307;-78
2022/06/10 02:13:03;;;;;;;2.75;1.60;;;21.40;80.50;;;;;;6203653;23;20438;-79
2022/06/10 02:15:40;;;;;;;2.13;1.60;;;21.40;80.50;;;;;;6216547;23;20024;-77
2022/06/10 02:18:13;;;;;;;2.33;1.70;;;21.40;80.30;;;;;;6216419;23;20032;-79
2022/06/10 02:20:45;;;;;;;1.92;1.70;;;21.40;80.40;;;;;;6215236;23;20009;-79
2022/06/10 02:23:16;;;;;;;3.25;1.98;;;21.40;80.40;;;;;;6216591;23;20300;-79
2022/06/10 02:25:47;;;;;;;2.72;1.98;;;21.40;80.40;;;;;;6216314;23;20005;-79
2022/06/10 02:28:18;;;;;;;2.83;1.98;;;21.40;80.20;;;;;;6215930;23;20028;-79
2022/06/10 02:30:53;;;;;;;2.17;1.60;;;21.40;80.50;;;;;;6216037;23;20342;-79
2022/06/10 02:33:19;;;;;;;2.47;1.70;;;21.40;80.50;;;;;;6215273;23;20404;-80
2022/06/10 02:36:16;;;;;;;2.50;1.83;;;21.40;80.50;;;;;;6216566;23;20055;-80
2022/06/10 02:38:54;;;;;;;2.85;1.73;;;21.30;79.80;;;;;;6215990;23;20008;-81
2022/06/10 02:41:31;;;;;;;2.03;1.75;;;21.30;79.80;;;;;;6216410;23;20028;-80
2022/06/10 02:44:13;;;;;;;2.22;1.60;;;21.20;79.90;;;;;;6215392;23;20339;-80
2022/06/10 02:46:50;;;;;;;5.15;1.88;;;21.20;79.90;;;;;;6216453;23;20426;-80
2022/06/10 02:49:18;;;;;;;1.98;1.73;;;21.20;80.00;;;;;;6216110;23;20419;-80
2022/06/10 02:51:46;;;;;;;1.92;1.73;;;21.20;80.00;;;;;;6216184;23;20076;-80
2022/06/10 02:54:20;;;;;;;2.22;1.83;;;21.10;79.90;;;;;;6215965;23;20407;-80
2022/06/10 02:56:46;;;;;;;2.05;1.65;;;21.10;79.90;;;;;;6215635;23;20001;-79
2022/06/10 03:02:17;;;;;;;6.25;2.30;;;21.10;80.20;;;;;;6216345;23;20066;-79
2022/06/10 03:05:07;;;;;;;2.63;1.85;;;21.10;80.20;;;;;;6189120;23;20009;-80
2022/06/10 03:07:43;;;;;;;3.47;1.80;;;21.20;80.20;;;;;;6215688;23;20005;-80
2022/06/10 03:10:41;;;;;;;3.13;1.92;;;21.20;80.00;;;;;;6188690;23;20480;-80
2022/06/10 03:13:24;;;;;;;2.33;1.80;;;21.20;80.00;;;;;;6215651;23;19997;-80
2022/06/10 03:15:56;;;;;;;3.70;2.03;;;21.10;80.00;;;;;;6216117;23;20001;-79
2022/06/10 03:18:35;;;;;;;3.53;2.20;;;21.10;79.90;;;;;;6215136;23;20039;-78
2022/06/10 03:21:25;;;;;;;3.05;2.30;;;21.10;80.10;;;;;;6215520;23;20457;-78
2022/06/10 03:23:59;;;;;;;4.35;2.03;;;21.10;80.20;;;;;;6215645;23;20076;-78
2022/06/10 03:26:28;;;;;;;4.45;2.38;;;21.10;80.20;;;;;;6215243;23;20072;-78
2022/06/10 03:29:39;;;;;;;4.03;2.40;;;21.10;80.50;;;;;;6215009;23;20128;-78
2022/06/10 03:32:31;;;;;;;2.53;2.33;;;21.10;80.30;;;;;;6202863;23;20012;-78
2022/06/10 03:35:21;;;;;;;3.45;2.67;;;21.10;80.30;;;;;;6216076;23;20005;-78
2022/06/10 03:37:48;;;;;;;3.08;2.30;;;21.10;80.40;;;;;;6214554;23;20459;-76
2022/06/10 03:40:22;;;;;;;2.67;2.28;;;21.10;80.50;;;;;;6214881;23;20001;-77
2022/06/10 03:42:52;;;;;;;4.05;2.40;;;21.10;80.40;;;;;;6214625;23;20016;-76
2022/06/10 03:45:21;;;;;;;4.05;2.97;;;21.20;80.70;;;;;;6188140;23;20004;-77
2022/06/10 03:47:47;;;;;;;3.42;2.50;;;21.20;80.80;;;;;;6214714;23;20008;-77
2022/06/10 03:50:17;;;;;;;3.40;3.05;;;21.10;80.40;;;;;;6215157;23;20024;-78
2022/06/10 03:52:44;;;;;;;4.15;2.97;;;21.10;80.40;;;;;;6214673;23;20008;-77
2022/06/10 03:55:16;;;;;;;5.15;3.35;;;21.10;80.50;;;;;;6215404;23;20001;-77
2022/06/10 03:57:43;;;;;;;3.97;3.10;;;21.10;80.50;;;;;;6212685;23;20074;-77
2022/06/10 04:00:14;;;;;;;3.72;3.10;;;21.00;80.50;;;;;;6213821;23;20001;-78
2022/06/10 04:02:41;;;;;;;5.88;3.28;;;21.00;80.60;;;;;;6214457;23;20001;-78
2022/06/10 04:05:08;;;;;;;2.90;2.60;;;21.00;80.70;;;;;;6188560;23;20480;-78
2022/06/10 04:07:34;;;;;;;3.15;2.53;;;21.10;80.70;;;;;;6188580;23;20043;-78
2022/06/10 04:10:00;;;;;;;4.18;3.40;;;21.10;80.70;;;;;;6214692;23;19997;-78
2022/06/10 04:12:26;;;;;;;3.22;2.75;;;21.10;80.70;;;;;;6215274;23;20051;-78
2022/06/10 04:14:52;;;;;;;4.40;3.25;;;21.10;80.80;;;;;;6215135;23;20084;-78
2022/06/10 04:17:18;;;;;;;3.78;2.78;;;21.20;80.60;;;;;;6215354;23;20043;-77
2022/06/10 04:19:44;;;;;;;5.38;3.15;;;21.20;80.50;;;;;;6214683;23;20011;-77
2022/06/10 04:22:10;;;;;;;3.70;2.70;;;21.20;80.60;;;;;;6214675;23;20054;-77
2022/06/10 04:24:36;;;;;;;3.95;2.90;;;21.30;80.80;;;;;;6214668;23;20007;-78
2022/06/10 04:27:02;;;;;;;3.15;2.70;;;21.30;80.70;;;;;;6215106;23;20001;-77
2022/06/10 04:29:28;;;;;;;5.15;2.90;;;21.30;80.80;;;;;;6214626;23;20008;-78
2022/06/10 04:31:53;;;;;;;3.92;2.85;;;21.30;80.80;;;;;;6214668;23;20004;-78
2022/06/10 04:34:19;;;;;;;5.05;2.95;;;21.30;80.70;;;;;;6187402;23;20024;-79
2022/06/10 04:36:45;;;;;;;5.03;2.95;;;21.40;80.70;;;;;;6213505;23;20012;-79
2022/06/10 04:39:11;;;;;;;3.95;2.75;;;21.40;80.60;;;;;;6215011;23;20116;-79
2022/06/10 04:41:37;;;;;;;3.83;2.90;;;21.40;80.50;;;;;;6214741;23;20001;-81
2022/06/10 04:44:03;;;;;;;4.40;2.70;;;21.40;80.60;;;;;;6215185;23;20382;-82
2022/06/10 04:46:33;;;;;;;3.50;2.80;;;21.40;80.60;;;;;;6215595;23;20004;-80
2022/06/10 04:48:59;;;;;;;3.03;2.38;;;21.40;80.60;;;;;;6214353;23;20000;-80
2022/06/10 04:51:25;;;;;;;3.42;2.75;;;21.40;80.30;;;;;;6214689;23;20051;-78
2022/06/10 04:53:51;;;;;;;5.03;3.05;;;21.40;80.10;;;;;;6214429;23;20076;-77
2022/06/10 04:56:18;;;;;;;3.45;2.83;;;21.40;80.10;;;;;;6215073;23;20059;-77
2022/06/10 04:58:43;;;;;;;2.90;2.60;;;21.50;80.20;;;;;;6211796;23;20557;-74
2022/06/10 05:01:10;;;;;;;3.67;2.67;;;21.50;79.90;;;;;;6212496;23;20082;-75
2022/06/10 05:03:36;;;;;;;3.88;2.72;;;21.50;79.60;;;;;;6212881;23;20005;-76
2022/06/10 05:06:02;;;;;;;6.20;3.10;;;21.50;79.40;;;;;;6214650;23;20466;-79
2022/06/10 05:08:28;;;;;;;3.03;2.42;;;21.50;79.50;;;;;;6214153;23;20015;-80
2022/06/10 05:10:53;;;;;;;6.28;2.70;;;21.60;79.60;;;;;;6213883;23;20005;-79
2022/06/10 05:13:22;;;;;;;4.45;3.17;;;21.60;79.10;;;;;;6215258;23;20005;-79
2022/06/10 05:15:49;;;;;;;5.95;3.55;;;21.50;78.50;;;;;;6214733;23;20023;-78
2022/06/10 05:18:17;;;;;;;5.45;2.85;;;21.40;78.60;;;;;;6214672;23;20419;-78
2022/06/10 05:20:44;;;;;;;3.53;3.10;;;21.40;79.40;;;;;;6187764;23;20339;-77
2022/06/10 05:23:18;;;;;;;6.13;2.97;;;21.40;79.70;;;;;;6216445;23;20008;-84
2022/06/10 05:25:44;;;;;;;7.35;3.42;;;21.40;79.80;;;;;;6215164;23;20426;-80
2022/06/10 05:28:12;;;;;;;4.30;2.75;;;21.50;79.90;;;;;;6215976;23;20038;-82
2022/06/10 05:30:39;;;;;;;3.65;2.38;;;21.40;79.30;;;;;;6214361;23;20008;-81
2022/06/10 05:33:06;;;;;;;4.60;2.60;;;21.50;79.50;;;;;;6214646;23;20500;-82
2022/06/10 05:35:32;;;;;;;4.93;2.95;;;21.60;80.30;;;;;;6212294;23;20071;-82
2022/06/10 05:37:58;;;;;;;3.13;2.75;;;21.60;79.70;;;;;;6186681;23;20032;-80
2022/06/10 05:40:27;;;;;;;3.95;2.40;;;21.70;78.90;;;;;;6214483;23;20004;-79
2022/06/10 05:42:53;;;;;;;3.60;2.40;;;21.70;78.80;;;;;;6215413;23;20017;-77
2022/06/10 05:45:20;;;;;;;4.25;2.55;;;21.70;78.50;;;;;;6215666;23;20374;-81
2022/06/10 05:47:49;;;;;;;3.47;2.25;;;21.80;78.50;;;;;;6215703;23;20450;-80
2022/06/10 05:50:18;;;;;;;4.53;2.55;;;21.80;78.00;;;;;;6215775;23;20001;-80
2022/06/10 05:52:46;;;;;;;3.92;2.40;;;21.80;78.20;;;;;;6192306;23;20004;-81
2022/06/10 05:55:12;;;;;;;2.55;2.25;;;21.80;77.20;;;;;;6224077;23;20001;-81
2022/06/10 05:57:39;;;;;;;2.28;2.03;;;21.80;77.40;;;;;;6224374;23;20096;-81
2022/06/10 06:00:08;;;;;;;3.85;2.47;;;21.90;77.30;;;;;;6217137;23;20007;-81
2022/06/10 06:02:33;;;;;;;3.20;2.05;;;21.90;77.40;;;;;;6217271;23;20032;-80
2022/06/10 06:04:59;;;;;;;4.28;2.03;;;22.00;77.50;;;;;;6216314;23;20423;-80
2022/06/10 06:07:28;;;;;;;3.53;2.20;;;22.00;76.60;;;;;;6216726;23;20001;-81
2022/06/10 06:09:54;;;;;;;4.40;1.70;;;22.00;75.70;;;;;;6215982;23;20011;-82
2022/06/10 06:12:22;;;;;;;3.15;1.70;;;22.00;75.40;;;;;;6215373;23;20015;-82
2022/06/10 06:14:48;;;;;;;2.40;1.58;;;22.10;75.40;;;;;;6190585;23;20015;-82
2022/06/10 06:17:15;;;;;;;5.55;1.80;;;22.10;74.40;;;;;;6216984;23;20075;-82
2022/06/10 06:19:41;;;;;;;1.40;1.30;;;22.10;72.40;;;;;;6214692;23;20008;-82
2022/06/10 06:22:07;;;;;;;3.17;1.52;;;22.10;73.60;;;;;;6216747;23;20396;-82
2022/06/10 06:24:34;;;;;;;2.78;1.63;;;22.20;73.40;;;;;;6215669;23;20015;-83
2022/06/10 06:27:01;;;;;;;1.80;1.23;;;22.30;72.70;;;;;;6207080;23;20001;-83
2022/06/10 06:29:27;;;;;;;1.40;1.05;;;22.30;72.20;;;;;;6188007;23;20011;-83
2022/06/10 06:31:53;;;;;;;1.25;1.05;;;22.30;70.10;;;;;;6213339;23;20024;-83
2022/06/10 06:34:24;;;;;;;1.80;0.90;;;22.30;69.40;;;;;;6215556;23;20007;-83
2022/06/10 06:36:51;;;;;;;1.98;1.10;;;22.30;70.30;;;;;;6215903;23;20349;-83
2022/06/10 06:39:19;;;;;;;2.50;1.23;;;22.40;70.90;;;;;;6214894;23;20001;-82
2022/06/10 06:41:44;;;;;;;5.80;2.35;;;22.50;71.60;;;;;;6215401;23;20077;-83
2022/06/10 06:44:10;;;;;;;6.85;1.63;;;22.40;68.30;;;;;;6215806;23;20032;-83
2022/06/10 06:46:38;;;;;;;6.28;1.67;;;22.50;69.20;;;;;;6215641;23;19997;-83
2022/06/10 06:49:08;;;;;;;5.75;1.60;;;22.50;67.70;;;;;;6215442;23;20000;-83
2022/06/10 06:51:34;;;;;;;5.35;1.38;;;22.50;66.80;;;;;;6216577;23;20008;-83
2022/06/10 06:54:01;;;;;;;5.47;1.63;;;22.60;68.40;;;;;;6215877;23;20055;-83
2022/06/10 06:56:28;;;;;;;3.88;1.67;;;22.60;68.90;;;;;;6214631;23;20051;-83
2022/06/10 06:58:54;;;;;;;3.88;1.50;;;22.60;68.10;;;;;;6215038;23;20074;-84
2022/06/10 07:01:19;;;;;;;2.63;1.23;;;22.70;66.20;;;;;;6215932;23;20407;-84
2022/06/10 07:03:45;;;;;;;1.90;1.10;;;22.60;65.80;;;;;;6214572;23;20033;-83
2022/06/10 07:06:11;;;;;;;1.50;0.80;;;22.70;67.40;;;;;;6215299;23;20005;-83
2022/06/10 07:08:37;;;;;;;2.25;1.20;;;22.70;68.00;;;;;;6215017;23;20032;-83
2022/06/10 07:11:05;;;;;;;2.65;1.23;;;22.90;68.00;;;;;;6215401;23;20399;-83
2022/06/10 07:13:31;;;;;;;1.98;1.02;;;22.90;68.20;;;;;;6215933;23;20004;-83
2022/06/10 07:15:59;;;;;;;1.90;1.02;;;23.10;68.20;;;;;;6214987;23;20001;-83
2022/06/10 07:18:24;;;;;;;1.63;1.02;;;23.10;68.00;;;;;;6213942;23;20075;-82
2022/06/10 07:20:50;;;;;;;2.15;1.00;;;23.30;68.20;;;;;;6186219;23;20040;-82
2022/06/10 07:23:17;;;;;;;2.58;0.88;;;23.30;66.70;;;;;;6214835;23;20007;-82
2022/06/10 07:25:43;;;;;;;2.20;0.90;;;23.40;67.80;;;;;;6214507;23;20297;-80
2022/06/10 07:28:11;;;;;;;1.30;0.82;;;23.50;67.90;;;;;;6214872;23;20001;-81
2022/06/10 07:30:38;;;;;;;2.75;0.93;;;23.60;67.70;;;;;;6215262;23;20001;-82
2022/06/10 07:33:04;;;;;;;6.90;1.33;;;23.70;67.00;;;;;;6215502;23;20035;-89
2022/06/10 07:35:30;;;;;;;1.60;0.73;;;23.70;67.00;;;;;;6213869;23;20327;-92
2022/06/10 07:37:57;;;;;;;1.30;0.70;;;23.80;66.30;;;;;;6216203;23;20028;-91
2022/06/10 07:43:23;;;;;;;1.23;0.80;;;23.80;60.10;;;;;;6216821;23;20312;-90
2022/06/10 07:45:49;;;;;;;2.92;0.60;;;23.80;62.90;;;;;;6215731;23;20319;-89
2022/06/10 07:48:15;;;;;;;0.75;0.50;;;23.80;62.70;;;;;;6215009;23;20089;-90
2022/06/10 07:50:43;;;;;;;1.00;0.60;;;23.80;62.50;;;;;;6211791;23;20013;-90
2022/06/10 07:53:10;;;;;;;1.13;0.60;;;23.90;62.20;;;;;;6215664;23;20031;-89
2022/06/10 07:55:36;;;;;;;2.95;0.70;;;23.90;62.30;;;;;;6215049;23;20079;-88
2022/06/10 07:58:02;;;;;;;1.98;0.80;;;24.00;62.80;;;;;;6216921;23;20004;-93
2022/06/10 08:00:27;;;;;;;0.63;0.60;;;24.10;63.00;;;;;;6217574;23;20007;-92
2022/06/10 08:02:53;;;;;;;1.60;0.60;;;24.10;63.10;;;;;;6217808;23;20027;-90
2022/06/10 08:05:19;;;;;;;0.70;0.45;;;24.20;62.90;;;;;;6215262;23;20000;-82
2022/06/10 08:07:45;;;;;;;1.90;0.60;;;24.20;63.00;;;;;;6214033;23;20001;-83
2022/06/10 08:10:25;;;;;;;2.33;0.73;;;24.30;63.00;;;;;;6212666;23;19997;-82
2022/06/10 08:12:51;;;;;;;3.93;0.73;;;24.40;62.80;;;;;;6214926;23;20000;-81
2022/06/10 08:15:18;;;;;;;1.35;0.68;;;24.40;62.90;;;;;;6214738;23;20068;-81
2022/06/10 08:17:44;;;;;;;1.75;0.88;;;24.40;62.10;;;;;;6188051;23;20051;-81
2022/06/10 08:20:22;;;;;;;1.90;0.70;;;24.40;62.50;;;;;;6214598;23;20315;-81
2022/06/10 08:22:49;;;;;;;4.22;1.02;;;24.50;62.70;;;;;;6214440;23;20054;-82
2022/06/10 08:25:16;;;;;;;2.70;0.90;;;24.50;62.80;;;;;;6214565;23;20028;-82
2022/06/10 08:27:42;;;;;;;1.83;0.80;;;24.50;62.00;;;;;;6214398;23;20028;-81
2022/06/10 08:30:13;;;;;;;1.60;0.77;;;24.50;62.40;;;;;;6213252;23;20410;-82
2022/06/10 08:32:38;;;;;;;2.05;0.70;;;24.50;62.80;;;;;;6213613;23;20001;-83
2022/06/10 08:35:06;;;;;;;1.92;0.70;;;24.60;63.10;;;;;;6213250;23;20080;-83
2022/06/10 08:37:32;;;;;;;1.38;0.63;;;24.70;62.10;;;;;;6214271;23;20059;-81
2022/06/10 08:39:58;;;;;;;1.58;0.40;;;24.70;59.40;;;;;;6212468;23;20508;-82
2022/06/10 08:42:42;;;;;;;1.27;0.60;;;24.60;61.40;;;;;;6214641;23;20092;-82
2022/06/10 08:45:35;;;;;;;1.80;0.60;;;24.70;58.90;;;;;;6214386;23;19997;-80
2022/06/10 08:48:20;;;;;;;0.90;0.43;;;24.70;60.10;;;;;;6213472;23;20004;-82
2022/06/10 08:50:51;;;;;;;1.77;0.68;;;24.70;60.70;;;;;;6215700;23;19997;-82
2022/06/10 08:53:46;;;;;;;1.67;0.70;;;24.80;61.40;;;;;;6217048;23;20431;-82
2022/06/10 08:56:24;;;;;;;0.80;0.55;;;24.80;60.30;;;;;;6219848;23;19996;-83
2022/06/10 08:59:12;;;;;;;3.83;0.50;;;24.80;60.80;;;;;;6200388;23;20005;-83
2022/06/10 09:02:00;;;;;;;0.90;0.30;;;24.80;57.20;;;;;;6217267;23;20001;-82
2022/06/10 09:04:56;;;;;;;1.08;0.28;;;24.90;57.30;;;;;;6216161;23;20000;-82
2022/06/10 09:07:39;;;;;;;1.00;0.32;;;24.90;54.50;;;;;;6219567;23;20005;-81
2022/06/10 09:10:15;;;;;;;0.80;0.30;;;24.90;56.40;;;;;;6190783;23;20047;-80
2022/06/10 09:13:00;;;;;;;1.50;0.50;;;24.90;56.80;;;;;;6216996;23;20467;-82
2022/06/10 09:15:30;;;;;;;0.43;0.20;;;24.90;56.50;;;;;;6217335;23;20008;-80
2022/06/10 09:18:07;;;;;;;0.82;0.40;;;24.90;56.70;;;;;;6214195;23;20015;-82
2022/06/10 09:20:46;;;;;;;0.90;0.40;;;24.90;56.10;;;;;;6214056;23;19997;-83
2022/06/10 09:23:30;;;;;;;1.13;0.30;;;24.90;56.50;;;;;;6212494;23;20001;-82
2022/06/10 09:25:59;;;;;;;0.45;0.28;;;24.90;57.00;;;;;;6212036;23;20021;-81
2022/06/10 09:28:24;;;;;;;0.65;0.30;;;25.00;57.40;;;;;;6213664;23;20047;-81
2022/06/10 09:31:18;;;;;;;0.43;0.32;;;25.00;57.50;;;;;;6213418;23;20005;-81
2022/06/10 09:34:13;;;;;;;0.70;0.50;;;25.00;57.10;;;;;;6212285;23;20005;-81
2022/06/10 09:36:41;;;;;;;3.45;0.70;;;25.10;55.60;;;;;;6168159;23;20012;-82
2022/06/10 09:42:30;;;;;;;1.50;0.40;;;25.10;56.80;;;;;;6174336;23;20075;-82
2022/06/10 09:45:22;;;;;;;4.70;0.70;;;25.20;57.20;;;;;;6215342;23;20001;-81
2022/06/10 09:47:55;;;;;;;1.58;0.70;;;25.30;57.60;;;;;;6215812;23;20076;-81
2022/06/10 09:50:52;;;;;;;1.83;0.50;;;25.40;57.70;;;;;;6215646;23;20304;-83
2022/06/10 09:53:42;;;;;;;2.70;0.68;;;25.40;57.80;;;;;;6215025;23;20051;-82
2022/06/10 09:56:42;;;;;;;2.80;0.70;;;25.50;58.10;;;;;;6215296;23;20008;-81
2022/06/10 09:59:07;;;;;;;2.45;0.77;;;25.50;57.70;;;;;;6215258;23;20009;-81
2022/06/10 10:01:59;;;;;;;1.48;0.70;;;25.50;57.90;;;;;;6214134;23;20608;-83
2022/06/10 10:04:46;;;;;;;1.60;0.80;;;25.60;58.30;;;;;;6214413;23;20008;-82
2022/06/10 10:07:50;;;;;;;1.13;0.50;;;25.70;56.50;;;;;;6213805;23;19997;-84
2022/06/10 10:10:39;;;;;;;1.02;0.43;;;25.80;55.30;;;;;;6211100;23;20342;-85
2022/06/10 10:13:29;;;;;;;0.85;0.43;;;25.80;55.60;;;;;;6183044;23;20008;-86
2022/06/10 10:16:14;;;;;;;1.45;0.60;;;25.90;55.40;;;;;;6184125;23;20338;-85
2022/06/10 10:18:51;;;;;;;0.80;0.30;;;26.00;55.10;;;;;;6215610;23;20009;-86
2022/06/10 10:21:41;;;;;;;0.45;0.43;;;25.90;53.50;;;;;;6214174;23;20078;-84
2022/06/10 10:24:18;;;;;;;1.77;0.50;;;26.00;53.30;;;;;;6213227;23;20008;-84
2022/06/10 10:26:45;;;;;;;0.90;0.60;;;26.00;52.70;;;;;;6214934;23;20418;-84
2022/06/10 10:29:20;;;;;;;2.33;0.65;;;26.00;52.00;;;;;;6214693;23;20391;-84
2022/06/10 10:31:55;;;;;;;2.13;0.60;;;26.10;52.20;;;;;;6216305;23;20005;-82
2022/06/10 10:34:23;;;;;;;2.72;0.47;;;26.30;52.60;;;;;;6215105;23;20004;-80
2022/06/10 10:36:56;;;;;;;0.80;0.38;;;26.50;52.50;;;;;;6216301;23;20001;-81
2022/06/10 10:39:36;;;;;;;0.30;0.30;;;26.70;51.70;;;;;;6215095;23;20091;-80
2022/06/10 10:42:18;;;;;;;1.40;0.38;;;26.90;50.80;;;;;;6215490;23;20059;-81
2022/06/10 10:44:47;;;;;;;0.50;0.38;;;27.00;49.20;;;;;;6188562;23;20004;-80
2022/06/10 10:47:12;;;;;;;1.58;0.40;;;27.10;49.80;;;;;;6215717;23;19996;-79
2022/06/10 10:50:03;;;;;;;0.55;0.40;;;27.20;49.70;;;;;;6215720;23;20004;-82
2022/06/10 10:52:40;;;;;;;0.60;0.43;;;27.30;48.70;;;;;;6154003;23;20346;-80
2022/06/10 10:55:14;;;;;;;0.38;0.30;;;27.30;47.50;;;;;;6216415;23;20374;-81
2022/06/10 10:57:51;;;;;;;0.60;0.50;;;27.50;48.80;;;;;;6215251;23;20005;-82
2022/06/10 11:00:17;;;;;;;0.77;0.43;;;27.80;47.20;;;;;;6215011;23;20008;-82
2022/06/10 11:02:51;;;;;;;1.08;0.30;;;28.00;46.80;;;;;;6215174;23;20075;-81
2022/06/10 11:05:20;;;;;;;0.70;0.47;;;28.20;47.50;;;;;;6214894;23;20031;-81
2022/06/10 11:07:47;;;;;;;0.50;0.40;;;28.40;47.10;;;;;;6212385;23;19997;-81
2022/06/10 11:10:23;;;;;;;2.47;0.40;;;28.50;46.60;;;;;;6214511;23;20071;-81
2022/06/10 11:12:50;;;;;;;0.73;0.40;;;28.50;45.00;;;;;;6215792;23;20407;-80
2022/06/10 11:15:27;;;;;;;0.80;0.40;;;28.50;44.70;;;;;;6214785;23;20087;-82
2022/06/10 11:17:55;;;;;;;0.82;0.32;;;28.40;44.70;;;;;;6188219;23;20422;-83
2022/06/10 11:20:32;;;;;;;0.20;0.20;;;28.40;44.60;;;;;;6214001;23;20046;-81
2022/06/10 11:23:20;;;;;;;1.40;0.20;;;28.30;43.80;;;;;;6213885;23;20000;-82
2022/06/10 11:26:21;;;;;;;0.93;0.60;;;28.20;42.90;;;;;;6215979;23;20415;-81
2022/06/10 11:28:49;;;;;;;0.75;0.40;;;28.20;43.40;;;;;;6216047;23;20426;-82
2022/06/10 11:31:45;;;;;;;0.30;0.30;;;28.20;43.60;;;;;;6215268;23;20004;-82
2022/06/10 11:34:27;;;;;;;0.70;0.30;;;28.20;43.40;;;;;;6215689;23;20004;-81
2022/06/10 11:36:54;;;;;;;0.57;0.40;;;28.10;44.00;;;;;;6215018;23;20032;-81
2022/06/10 11:39:27;;;;;;;0.30;0.30;;;28.10;44.40;;;;;;6215402;23;20087;-81
2022/06/10 11:42:17;;;;;;;0.65;0.30;;;28.20;44.70;;;;;;6214320;23;20011;-83
2022/06/10 11:44:53;;;;;;;0.40;0.40;;;28.40;45.30;;;;;;6215988;23;20028;-82
2022/06/10 11:47:27;;;;;;;1.10;0.47;;;28.90;45.10;;;;;;6212404;23;20316;-88
2022/06/10 11:50:03;;;;;;;1.08;0.50;;;29.50;43.90;;;;;;6211005;23;20008;-89
2022/06/10 11:52:39;;;;;;;1.30;0.50;;;29.90;43.20;;;;;;6217376;23;20032;-89
2022/06/10 11:55:09;;;;;;;0.93;0.30;;;30.30;41.60;;;;;;6219854;23;20005;-91
2022/06/10 12:00:41;;;;;;;0.95;0.60;;;30.30;41.50;;;;;;6222220;23;20020;-87
2022/06/10 12:03:25;;;;;;;1.98;0.50;;;30.00;42.10;;;;;;6220540;23;20036;-87
2022/06/10 12:06:09;;;;;;;1.20;0.60;;;30.00;42.50;;;;;;6227185;23;20007;-88
2022/06/10 12:08:53;;;;;;;0.52;0.40;;;29.90;42.30;;;;;;6224127;23;20028;-88
2022/06/10 12:11:56;;;;;;;0.80;0.52;;;29.90;41.60;;;;;;6223213;23;20004;-91
2022/06/10 12:14:41;;;;;;;0.73;0.50;;;29.70;43.20;;;;;;6220251;23;20005;-94
2022/06/10 12:17:45;;;;;;;0.35;0.30;;;29.60;42.90;;;;;;6218639;23;20000;-91
2022/06/10 12:20:13;;;;;;;0.60;0.30;;;29.60;41.10;;;;;;6095775;23;20034;-92
2022/06/10 12:22:39;;;;;;;2.08;0.30;;;29.50;41.90;;;;;;6197228;23;20005;-90
2022/06/10 12:25:14;;;;;;;0.20;0.20;;;29.30;37.70;;;;;;6218408;23;20024;-91
2022/06/10 12:27:52;;;;;;;1.73;0.40;;;29.20;38.80;;;;;;6192652;23;20015;-94
2022/06/10 12:30:35;;;;;;;1.10;0.40;;;29.20;39.90;;;;;;6220979;23;20375;-91
2022/06/10 12:33:23;;;;;;;1.13;0.50;;;29.30;41.60;;;;;;6220340;23;20005;-80
2022/06/10 12:35:51;;;;;;;0.50;0.40;;;29.40;42.10;;;;;;6185899;23;20051;-80
2022/06/10 12:38:20;;;;;;;1.65;0.40;;;29.60;38.30;;;;;;6185372;23;20012;-91
2022/06/10 12:40:56;;;;;;;0.95;0.50;;;29.80;40.10;;;;;;6217738;23;19996;-89
2022/06/10 12:43:26;;;;;;;0.77;0.45;;;30.00;39.60;;;;;;6216518;23;20016;-89
2022/06/10 12:45:53;;;;;;;0.60;0.40;;;30.30;41.40;;;;;;6217738;23;20005;-89
2022/06/10 12:48:43;;;;;;;1.95;0.60;;;30.80;41.80;;;;;;6213688;23;20027;-90
2022/06/10 12:51:21;;;;;;;3.83;0.55;;;31.30;41.30;;;;;;6221855;23;20059;-90
2022/06/10 12:54:19;;;;;;;3.08;0.60;;;31.60;36.70;;;;;;6191980;23;20009;-96
2022/06/10 12:56:45;;;;;;;2.70;0.90;;;31.70;35.40;;;;;;6222052;23;20001;-88
2022/06/10 12:59:23;;;;;;;5.00;0.60;;;31.80;35.40;;;;;;6214529;23;20015;-87
2022/06/10 13:01:49;;;;;;;2.35;0.55;;;32.00;37.20;;;;;;6217650;23;20001;-83
2022/06/10 13:04:22;;;;;;;0.38;0.30;;;32.20;37.70;;;;;;6215841;23;19996;-90
2022/06/10 13:06:57;;;;;;;0.80;0.35;;;32.50;36.70;;;;;;6189736;23;19997;-86
2022/06/10 13:09:37;;;;;;;1.08;0.43;;;32.80;34.40;;;;;;6214905;23;20016;-88
2022/06/10 13:12:08;;;;;;;1.17;0.50;;;33.00;33.90;;;;;;6215871;23;20040;-90
2022/06/10 13:14:41;;;;;;;0.77;0.30;;;33.10;36.50;;;;;;6214784;23;20015;-88
2022/06/10 13:17:12;;;;;;;0.95;0.40;;;33.20;35.20;;;;;;6215197;23;20485;-88
2022/06/10 13:19:43;;;;;;;0.63;0.40;;;33.10;35.80;;;;;;6214704;23;20032;-87
2022/06/10 13:22:21;;;;;;;0.82;0.40;;;33.40;36.40;;;;;;6214125;23;20015;-88
2022/06/10 13:24:55;;;;;;;0.73;0.50;;;33.60;35.10;;;;;;6215007;23;20007;-86
2022/06/10 13:27:21;;;;;;;2.45;0.38;;;33.80;32.80;;;;;;6214651;23;20001;-87
2022/06/10 13:29:55;;;;;;;2.13;0.38;;;33.60;33.10;;;;;;6215528;23;20951;-86
2022/06/10 13:32:21;;;;;;;0.35;0.20;;;33.40;31.80;;;;;;6216184;23;20502;-87